Time;durP1;ratioP1;P1;durP2;ratioP2;P2;SDS_P1;SDS_P2;PMS_P1;PMS_P2;Temp;Humidity;BMP_temperature;BMP_pressure;BME280_temperature;BME280_humidity;BME280_pressure;Samples;Min_cycle;Max_cycle;Signal;HPM_P1;HPM_P2
2022/11/28 00:01:29;;;;;;;123.07;44.63;;;;;;;;;;6246406;28;20119;-74
2022/11/28 00:04:29;;;;;;;117.85;42.22;;;;;;;;;;6248644;28;20045;-58
2022/11/28 00:07:30;;;;;;;133.90;44.40;;;;;;;;;;6247091;28;20051;-58
2022/11/28 00:10:31;;;;;;;125.57;46.92;;;;;;;;;;6242634;28;20045;-57
2022/11/28 00:13:32;;;;;;;149.15;49.17;;;;;;;;;;6243958;28;20038;-57
2022/11/28 00:16:32;;;;;;;135.65;47.47;;;;;;;;;;6240985;28;20058;-56
2022/11/28 00:19:33;;;;;;;129.35;46.47;;;;;;;;;;6241143;28;20072;-62
2022/11/28 00:22:33;;;;;;;126.15;47.88;;;;;;;;;;6241328;28;20153;-60
2022/11/28 00:25:34;;;;;;;126.93;45.58;;;;;;;;;;6243443;28;20042;-73
2022/11/28 00:28:35;;;;;;;113.93;41.47;;;;;;;;;;6240278;28;20042;-73
2022/11/28 00:31:41;;;;;;;120.13;41.80;;;;;;;;;;6245654;28;20083;-73
2022/11/28 00:34:41;;;;;;;110.00;41.47;;;;;;;;;;6245291;28;20053;-75
2022/11/28 00:37:42;;;;;;;114.50;45.20;;;;;;;;;;6259116;28;20033;-69
2022/11/28 00:40:42;;;;;;;111.70;42.92;;;;;;;;;;6245900;28;20041;-71
2022/11/28 00:43:46;;;;;;;111.97;43.05;;;;;;;;;;6245130;28;20141;-74
2022/11/28 00:46:47;;;;;;;113.28;42.63;;;;;;;;;;6245817;28;20068;-66
2022/11/28 00:49:48;;;;;;;116.63;42.95;;;;;;;;;;6245920;28;20034;-60
2022/11/28 00:52:49;;;;;;;128.93;44.80;;;;;;;;;;6245729;28;20045;-59
2022/11/28 00:55:49;;;;;;;116.18;41.22;;;;;;;;;;6244595;28;20050;-58
2022/11/28 00:58:50;;;;;;;121.45;46.47;;;;;;;;;;6245863;28;20056;-57
2022/11/28 01:01:51;;;;;;;108.30;39.95;;;;;;;;;;6246275;28;20042;-58
2022/11/28 01:04:51;;;;;;;103.13;38.38;;;;;;;;;;6244199;28;20513;-68
2022/11/28 01:07:52;;;;;;;105.10;38.20;;;;;;;;;;6245287;28;20080;-67
2022/11/28 01:10:53;;;;;;;91.93;36.50;;;;;;;;;;6245147;28;20052;-63
2022/11/28 01:13:55;;;;;;;99.50;38.13;;;;;;;;;;6247097;28;20479;-58
2022/11/28 01:16:56;;;;;;;;;;;;;;;;;;6245731;28;20046;-58
2022/11/28 01:19:56;;;;;;;101.85;39.25;;;;;;;;;;6245653;28;19925;-58
2022/11/28 01:22:57;;;;;;;98.47;38.90;;;;;;;;;;6244791;28;20057;-58
2022/11/28 01:25:58;;;;;;;104.88;38.88;;;;;;;;;;6243881;28;20488;-56
2022/11/28 01:28:59;;;;;;;100.38;36.20;;;;;;;;;;6244328;28;20042;-58
2022/11/28 01:32:00;;;;;;;102.47;37.83;;;;;;;;;;6244720;28;20041;-64
2022/11/28 01:35:01;;;;;;;101.95;38.97;;;;;;;;;;6244131;28;20073;-67
2022/11/28 01:38:01;;;;;;;105.55;39.50;;;;;;;;;;6244524;28;20049;-71
2022/11/28 01:41:02;;;;;;;102.93;37.95;;;;;;;;;;6244725;28;20099;-68
2022/11/28 01:44:12;;;;;;;99.30;37.53;;;;;;;;;;6243448;28;20060;-73
2022/11/28 01:47:29;;;;;;;108.60;37.53;;;;;;;;;;6244434;28;20048;-56
2022/11/28 01:50:31;;;;;;;99.80;36.83;;;;;;;;;;6246855;28;20512;-63
2022/11/28 01:53:35;;;;;;;104.78;38.17;;;;;;;;;;6261455;28;20120;-58
2022/11/28 01:56:51;;;;;;;118.28;41.60;;;;;;;;;;6252131;28;20045;-59
2022/11/28 02:00:20;;;;;;;106.97;40.35;;;;;;;;;;6252654;28;20103;-75
2022/11/28 02:03:26;;;;;;;100.88;35.83;;;;;;;;;;6253689;28;20182;-64
2022/11/28 02:06:27;;;;;;;106.00;39.05;;;;;;;;;;6255274;28;20045;-58
2022/11/28 02:09:27;;;;;;;101.63;38.00;;;;;;;;;;6250915;28;20068;-57
2022/11/28 02:12:34;;;;;;;100.38;37.25;;;;;;;;;;6251668;28;20049;-57
2022/11/28 02:16:12;;;;;;;97.18;38.05;;;;;;;;;;6266375;28;20061;-62
2022/11/28 02:19:46;;;;;;;94.85;37.20;;;;;;;;;;6255163;28;20053;-56
2022/11/28 02:22:53;;;;;;;97.70;35.53;;;;;;;;;;6250554;28;20570;-60
2022/11/28 02:26:07;;;;;;;95.68;36.90;;;;;;;;;;6238669;28;20094;-59
2022/11/28 02:29:26;;;;;;;105.90;39.03;;;;;;;;;;6251935;28;20136;-59
2022/11/28 02:32:46;;;;;;;96.22;39.08;;;;;;;;;;6262901;28;20476;-58
2022/11/28 02:35:58;;;;;;;101.05;37.03;;;;;;;;;;6252461;28;20052;-60
2022/11/28 02:39:20;;;;;;;101.05;35.35;;;;;;;;;;6268856;28;20049;-58
2022/11/28 02:42:38;;;;;;;101.25;40.15;;;;;;;;;;6254696;28;20059;-67
2022/11/28 02:45:56;;;;;;;104.50;39.80;;;;;;;;;;6251559;28;20076;-73
2022/11/28 02:49:02;;;;;;;99.47;37.00;;;;;;;;;;6265848;28;20057;-60
2022/11/28 02:52:11;;;;;;;97.80;38.47;;;;;;;;;;6254474;28;20060;-59
2022/11/28 02:55:14;;;;;;;107.82;41.05;;;;;;;;;;6251137;28;20049;-59
2022/11/28 02:58:14;;;;;;;99.10;38.03;;;;;;;;;;6267299;28;20548;-58
2022/11/28 03:01:40;;;;;;;107.30;40.20;;;;;;;;;;6257538;28;20057;-59
2022/11/28 03:05:09;;;;;;;108.05;39.67;;;;;;;;;;6251755;28;20088;-61
2022/11/28 03:08:35;;;;;;;113.38;43.97;;;;;;;;;;6253783;28;20464;-64
2022/11/28 03:12:00;;;;;;;102.68;39.92;;;;;;;;;;6266882;28;20059;-58
2022/11/28 03:15:05;;;;;;;104.38;40.05;;;;;;;;;;6251416;28;20047;-59
2022/11/28 03:18:17;;;;;;;106.10;40.20;;;;;;;;;;6253036;28;20146;-65
2022/11/28 03:21:30;;;;;;;102.70;39.72;;;;;;;;;;6264235;28;20160;-58
2022/11/28 03:24:36;;;;;;;107.78;41.80;;;;;;;;;;6247700;28;20412;-58
2022/11/28 03:27:52;;;;;;;113.72;42.97;;;;;;;;;;6249789;28;20052;-59
2022/11/28 03:30:59;;;;;;;113.47;42.65;;;;;;;;;;6259742;28;20053;-64
2022/11/28 03:34:03;;;;;;;105.70;38.92;;;;;;;;;;6259864;28;20512;-57
2022/11/28 03:37:09;;;;;;;104.55;42.08;;;;;;;;;;6264424;28;20665;-61
2022/11/28 03:40:17;;;;;;;102.45;40.97;;;;;;;;;;6255093;28;20041;-58
2022/11/28 03:43:27;;;;;;;108.32;40.85;;;;;;;;;;6250339;28;20041;-60
2022/11/28 03:46:36;;;;;;;100.03;39.15;;;;;;;;;;6256023;28;20049;-58
2022/11/28 03:49:41;;;;;;;104.10;37.42;;;;;;;;;;6249387;28;20853;-63
2022/11/28 03:52:50;;;;;;;97.47;39.72;;;;;;;;;;6250245;28;20045;-58
2022/11/28 03:55:58;;;;;;;102.20;41.50;;;;;;;;;;6249535;28;20049;-57
2022/11/28 03:59:15;;;;;;;99.50;39.05;;;;;;;;;;6254193;28;20041;-60
2022/11/28 04:02:38;;;;;;;94.50;37.20;;;;;;;;;;6238243;28;20061;-58
2022/11/28 04:05:52;;;;;;;95.40;37.92;;;;;;;;;;6247317;28;20044;-58
2022/11/28 04:09:01;;;;;;;102.63;37.85;;;;;;;;;;6257658;28;20063;-56
2022/11/28 04:12:11;;;;;;;97.65;38.72;;;;;;;;;;6244440;28;20080;-55
2022/11/28 04:15:23;;;;;;;98.47;39.33;;;;;;;;;;6259546;28;20390;-66
2022/11/28 04:18:41;;;;;;;98.75;35.67;;;;;;;;;;6256505;28;20133;-56
2022/11/28 04:22:04;;;;;;;98.90;38.03;;;;;;;;;;6259951;28;20148;-58
2022/11/28 04:25:12;;;;;;;100.78;39.42;;;;;;;;;;6265542;28;20045;-58
2022/11/28 04:28:19;;;;;;;108.88;39.78;;;;;;;;;;6249823;28;20176;-58
2022/11/28 04:31:22;;;;;;;98.18;37.60;;;;;;;;;;6239795;28;20044;-58
2022/11/28 04:34:25;;;;;;;95.72;35.88;;;;;;;;;;6248395;28;20993;-72
2022/11/28 04:37:27;;;;;;;98.00;37.08;;;;;;;;;;6238564;28;20045;-58
2022/11/28 04:40:31;;;;;;;96.28;36.60;;;;;;;;;;6249026;28;20048;-66
2022/11/28 04:43:40;;;;;;;99.90;36.85;;;;;;;;;;6267149;28;20381;-65
2022/11/28 04:46:46;;;;;;;100.82;37.53;;;;;;;;;;6251224;28;20144;-60
2022/11/28 04:49:47;;;;;;;103.57;37.50;;;;;;;;;;6248455;28;20059;-75
2022/11/28 04:53:00;;;;;;;100.18;35.97;;;;;;;;;;6261074;28;20411;-59
2022/11/28 04:56:10;;;;;;;96.13;37.22;;;;;;;;;;6254424;28;20055;-58
2022/11/28 04:59:13;;;;;;;98.75;37.40;;;;;;;;;;6248222;28;20475;-60
2022/11/28 05:02:16;;;;;;;97.95;36.97;;;;;;;;;;6247867;28;20041;-58
2022/11/28 05:05:22;;;;;;;88.72;35.83;;;;;;;;;;6253797;28;20132;-58
2022/11/28 05:08:24;;;;;;;90.40;34.67;;;;;;;;;;6259245;28;20063;-63
2022/11/28 05:11:25;;;;;;;92.95;35.08;;;;;;;;;;6259099;28;20041;-60
2022/11/28 05:14:26;;;;;;;90.22;35.28;;;;;;;;;;6256424;28;20408;-58
2022/11/28 05:17:26;;;;;;;97.47;36.50;;;;;;;;;;6268061;28;20060;-65
2022/11/28 05:20:28;;;;;;;92.47;37.70;;;;;;;;;;6262034;28;20140;-67
2022/11/28 05:23:28;;;;;;;90.28;37.75;;;;;;;;;;6269107;28;20445;-60
2022/11/28 05:26:31;;;;;;;86.50;35.00;;;;;;;;;;6250673;28;20099;-73
2022/11/28 05:29:32;;;;;;;91.47;35.45;;;;;;;;;;6245586;28;20050;-66
2022/11/28 05:32:32;;;;;;;91.00;34.53;;;;;;;;;;6256694;28;20522;-59
2022/11/28 05:35:38;;;;;;;94.47;37.28;;;;;;;;;;6251303;28;20069;-74
2022/11/28 05:38:39;;;;;;;102.22;38.60;;;;;;;;;;6253783;28;20051;-64
2022/11/28 05:41:39;;;;;;;99.20;39.78;;;;;;;;;;6251410;28;20504;-59
2022/11/28 05:44:40;;;;;;;91.13;36.58;;;;;;;;;;6257284;28;20487;-75
2022/11/28 05:47:41;;;;;;;97.20;36.17;;;;;;;;;;6266457;28;20056;-59
2022/11/28 05:50:41;;;;;;;93.50;36.45;;;;;;;;;;6268542;28;20106;-58
2022/11/28 05:53:43;;;;;;;107.88;40.88;;;;;;;;;;6262719;28;20403;-66
2022/11/28 05:56:44;;;;;;;124.60;45.15;;;;;;;;;;6268868;28;20447;-60
2022/11/28 05:59:44;;;;;;;111.63;43.30;;;;;;;;;;6262757;28;20080;-57
2022/11/28 06:02:45;;;;;;;106.35;42.30;;;;;;;;;;6256150;28;20068;-59
2022/11/28 06:05:47;;;;;;;113.57;53.03;;;;;;;;;;6258657;28;20048;-63
2022/11/28 06:08:48;;;;;;;103.40;40.65;;;;;;;;;;6248667;28;20077;-58
2022/11/28 06:11:49;;;;;;;95.78;38.10;;;;;;;;;;6248334;28;20080;-59
2022/11/28 06:14:49;;;;;;;94.10;38.75;;;;;;;;;;6251814;28;20083;-59
2022/11/28 06:17:50;;;;;;;108.38;41.08;;;;;;;;;;6259735;28;20045;-64
2022/11/28 06:20:50;;;;;;;107.93;40.53;;;;;;;;;;6243592;28;20178;-59
2022/11/28 06:23:52;;;;;;;105.30;40.63;;;;;;;;;;6261163;28;20049;-60
2022/11/28 06:26:53;;;;;;;137.47;50.37;;;;;;;;;;6248009;28;20124;-58
2022/11/28 06:29:54;;;;;;;180.27;56.40;;;;;;;;;;6249752;28;20469;-59
2022/11/28 06:32:55;;;;;;;186.13;56.47;;;;;;;;;;6251092;28;20099;-59
2022/11/28 06:36:00;;;;;;;183.15;61.05;;;;;;;;;;6251393;28;20073;-60
2022/11/28 06:39:00;;;;;;;162.55;57.22;;;;;;;;;;6248684;28;20053;-59
2022/11/28 06:42:01;;;;;;;165.45;59.30;;;;;;;;;;6256625;28;20098;-71
2022/11/28 06:45:06;;;;;;;156.48;57.33;;;;;;;;;;6261436;28;20132;-59
2022/11/28 06:48:06;;;;;;;122.65;49.45;;;;;;;;;;6250517;28;20049;-58
2022/11/28 06:51:07;;;;;;;126.15;47.75;;;;;;;;;;6253395;28;20037;-59
2022/11/28 06:54:08;;;;;;;117.97;44.20;;;;;;;;;;6244857;28;20052;-58
2022/11/28 06:57:08;;;;;;;107.53;42.85;;;;;;;;;;6246148;28;20476;-58
2022/11/28 07:00:09;;;;;;;105.20;44.00;;;;;;;;;;6250278;28;20079;-58
2022/11/28 07:03:12;;;;;;;111.20;41.88;;;;;;;;;;6251293;28;20080;-58
2022/11/28 07:06:14;;;;;;;116.93;46.13;;;;;;;;;;6251246;28;20044;-58
2022/11/28 07:09:15;;;;;;;122.40;48.55;;;;;;;;;;6247708;28;20044;-57
2022/11/28 07:12:15;;;;;;;103.57;40.92;;;;;;;;;;6248752;28;20041;-59
2022/11/28 07:15:16;;;;;;;118.45;43.47;;;;;;;;;;6248543;28;20192;-57
2022/11/28 07:18:16;;;;;;;115.57;44.03;;;;;;;;;;6249263;28;20061;-60
2022/11/28 07:21:18;;;;;;;124.72;48.38;;;;;;;;;;6247999;28;20042;-57
2022/11/28 07:24:18;;;;;;;134.80;50.58;;;;;;;;;;6246668;28;20056;-59
2022/11/28 07:27:19;;;;;;;119.10;47.08;;;;;;;;;;6251707;28;20128;-58
2022/11/28 07:30:20;;;;;;;145.52;51.22;;;;;;;;;;6249304;28;20381;-59
2022/11/28 07:33:20;;;;;;;187.88;60.72;;;;;;;;;;6250395;28;20049;-59
2022/11/28 07:36:24;;;;;;;202.40;60.67;;;;;;;;;;6249718;28;20053;-65
2022/11/28 07:39:25;;;;;;;213.95;64.00;;;;;;;;;;6250508;28;20049;-61
2022/11/28 07:42:26;;;;;;;129.20;46.08;;;;;;;;;;6267036;28;20132;-60
2022/11/28 07:45:27;;;;;;;119.50;44.45;;;;;;;;;;6268141;28;20041;-60
2022/11/28 07:48:28;;;;;;;176.70;58.05;;;;;;;;;;6267597;28;20067;-59
2022/11/28 07:51:31;;;;;;;184.57;60.22;;;;;;;;;;6248735;28;20156;-58
2022/11/28 07:54:31;;;;;;;188.52;60.50;;;;;;;;;;6247729;28;20184;-59
2022/11/28 07:57:32;;;;;;;208.13;67.57;;;;;;;;;;6249447;28;20041;-60
2022/11/28 08:00:33;;;;;;;176.10;56.35;;;;;;;;;;6248627;28;20052;-60
2022/11/28 08:03:33;;;;;;;147.30;52.25;;;;;;;;;;6245709;28;20872;-60
2022/11/28 08:06:37;;;;;;;130.32;47.88;;;;;;;;;;6248972;28;20066;-59
2022/11/28 08:09:37;;;;;;;123.07;46.30;;;;;;;;;;6246946;28;20045;-59
2022/11/28 08:12:38;;;;;;;116.82;46.38;;;;;;;;;;6249640;28;20052;-60
2022/11/28 08:15:39;;;;;;;124.82;48.90;;;;;;;;;;6248329;28;20046;-57
2022/11/28 08:18:40;;;;;;;138.77;50.58;;;;;;;;;;6252462;28;20124;-60
2022/11/28 08:21:41;;;;;;;151.00;55.38;;;;;;;;;;6262073;28;21707;-60
2022/11/28 08:24:42;;;;;;;130.20;45.80;;;;;;;;;;6267019;28;20037;-58
2022/11/28 08:27:43;;;;;;;129.57;47.20;;;;;;;;;;6266943;28;20098;-58
2022/11/28 08:30:43;;;;;;;127.55;47.55;;;;;;;;;;6265773;28;20413;-59
2022/11/28 08:33:46;;;;;;;125.55;50.33;;;;;;;;;;6266878;28;20439;-60
2022/11/28 08:36:47;;;;;;;134.15;49.10;;;;;;;;;;6263543;28;20056;-59
2022/11/28 08:39:48;;;;;;;126.68;47.88;;;;;;;;;;6248756;28;20051;-60
2022/11/28 08:42:48;;;;;;;119.00;44.05;;;;;;;;;;6250873;28;20399;-60
2022/11/28 08:45:49;;;;;;;125.78;46.65;;;;;;;;;;6253967;28;20049;-58
2022/11/28 08:48:50;;;;;;;175.73;54.25;;;;;;;;;;6256369;28;20048;-61
2022/11/28 08:51:51;;;;;;;161.23;55.10;;;;;;;;;;6266381;28;20095;-58
2022/11/28 08:54:51;;;;;;;162.10;54.30;;;;;;;;;;6270806;28;20053;-59
2022/11/28 08:57:52;;;;;;;156.77;50.20;;;;;;;;;;6271509;28;20476;-58
2022/11/28 09:00:52;;;;;;;140.90;48.92;;;;;;;;;;6265068;28;20374;-59
2022/11/28 09:03:54;;;;;;;114.32;43.35;;;;;;;;;;6258352;28;20128;-60
2022/11/28 09:06:55;;;;;;;117.30;42.57;;;;;;;;;;6251860;28;20404;-62
2022/11/28 09:09:56;;;;;;;108.90;40.72;;;;;;;;;;6250974;28;20334;-60
2022/11/28 09:12:56;;;;;;;108.72;40.35;;;;;;;;;;6254534;28;20055;-66
2022/11/28 09:15:57;;;;;;;114.80;40.38;;;;;;;;;;6252414;28;20046;-58
2022/11/28 09:18:58;;;;;;;110.78;43.17;;;;;;;;;;6252770;28;20071;-57
2022/11/28 09:21:59;;;;;;;104.70;37.20;;;;;;;;;;6252822;28;20041;-58
2022/11/28 09:24:59;;;;;;;95.65;37.17;;;;;;;;;;6251514;28;20033;-58
2022/11/28 09:28:00;;;;;;;94.50;34.95;;;;;;;;;;6257450;28;20065;-58
2022/11/28 09:31:02;;;;;;;92.93;33.58;;;;;;;;;;6253156;28;20111;-59
2022/11/28 09:34:03;;;;;;;94.50;35.40;;;;;;;;;;6265959;28;20048;-59
2022/11/28 09:37:04;;;;;;;110.88;40.22;;;;;;;;;;6257401;28;20536;-56
2022/11/28 09:40:05;;;;;;;105.60;39.22;;;;;;;;;;6245979;28;20148;-59
2022/11/28 09:43:25;;;;;;;103.00;37.00;;;;;;;;;;6268870;28;20140;-57
2022/11/28 09:46:30;;;;;;;92.68;32.78;;;;;;;;;;6270552;28;20496;-58
2022/11/28 09:49:39;;;;;;;89.78;33.58;;;;;;;;;;6257046;28;20689;-64
2022/11/28 09:52:51;;;;;;;91.45;33.40;;;;;;;;;;6249858;28;20049;-58
2022/11/28 09:55:55;;;;;;;100.03;33.72;;;;;;;;;;6251868;28;20099;-58
2022/11/28 09:59:01;;;;;;;99.95;35.60;;;;;;;;;;6252669;28;20526;-60
2022/11/28 10:02:33;;;;;;;107.97;38.00;;;;;;;;;;6251153;28;20052;-58
2022/11/28 10:06:18;;;;;;;87.15;34.03;;;;;;;;;;6250511;28;20428;-59
2022/11/28 10:09:47;;;;;;;105.50;36.78;;;;;;;;;;6207189;28;20469;-59
2022/11/28 10:13:19;;;;;;;95.78;33.95;;;;;;;;;;6259831;28;20136;-59
2022/11/28 10:16:41;;;;;;;84.10;33.50;;;;;;;;;;6258378;28;20423;-58
2022/11/28 10:19:49;;;;;;;87.45;33.67;;;;;;;;;;6266420;28;20056;-58
2022/11/28 10:23:05;;;;;;;82.63;31.67;;;;;;;;;;6267871;28;20055;-58
2022/11/28 10:26:13;;;;;;;70.82;26.92;;;;;;;;;;6268907;28;20048;-57
2022/11/28 10:29:37;;;;;;;87.93;30.80;;;;;;;;;;6267844;28;20571;-59
2022/11/28 10:32:43;;;;;;;103.70;34.97;;;;;;;;;;6257729;28;20045;-59
2022/11/28 10:35:49;;;;;;;126.93;39.45;;;;;;;;;;6254420;28;20048;-57
2022/11/28 10:38:50;;;;;;;126.05;41.70;;;;;;;;;;6249305;28;20045;-59
2022/11/28 10:42:13;;;;;;;79.95;30.42;;;;;;;;;;6250291;28;20037;-59
2022/11/28 10:45:38;;;;;;;101.65;35.72;;;;;;;;;;6247858;28;20110;-59
2022/11/28 10:48:50;;;;;;;96.30;34.20;;;;;;;;;;6255785;28;20041;-58
2022/11/28 10:51:51;;;;;;;104.90;34.95;;;;;;;;;;6266749;28;20426;-60
2022/11/28 10:55:25;;;;;;;110.97;36.30;;;;;;;;;;6268346;28;20048;-60
2022/11/28 10:58:37;;;;;;;94.68;31.45;;;;;;;;;;6266391;28;20511;-58
2022/11/28 11:01:39;;;;;;;81.22;29.13;;;;;;;;;;6264292;28;20041;-60
2022/11/28 11:04:40;;;;;;;96.00;34.30;;;;;;;;;;6250990;28;20045;-57
2022/11/28 11:08:21;;;;;;;81.03;29.30;;;;;;;;;;6251440;28;20439;-60
2022/11/28 11:11:26;;;;;;;75.05;26.83;;;;;;;;;;6229623;28;20213;-59
2022/11/28 11:14:40;;;;;;;73.10;28.27;;;;;;;;;;6250621;28;21518;-59
2022/11/28 11:17:41;;;;;;;78.15;29.15;;;;;;;;;;6257119;28;20415;-57
2022/11/28 11:20:42;;;;;;;81.32;28.88;;;;;;;;;;6262785;28;20063;-59
2022/11/28 11:23:44;;;;;;;79.97;30.73;;;;;;;;;;6252493;28;20044;-59
2022/11/28 11:26:47;;;;;;;72.93;28.15;;;;;;;;;;6249479;28;20045;-58
2022/11/28 11:29:48;;;;;;;83.00;30.20;;;;;;;;;;6249486;28;20624;-59
2022/11/28 11:32:49;;;;;;;88.65;31.52;;;;;;;;;;6250515;28;20045;-59
2022/11/28 11:35:51;;;;;;;78.03;28.63;;;;;;;;;;6249072;28;20045;-58
2022/11/28 11:39:04;;;;;;;71.15;26.40;;;;;;;;;;6253237;28;20092;-57
2022/11/28 11:42:05;;;;;;;72.63;27.92;;;;;;;;;;6252585;28;20554;-60
2022/11/28 11:45:26;;;;;;;68.63;24.63;;;;;;;;;;6249733;28;20511;-57
2022/11/28 11:48:54;;;;;;;68.43;25.63;;;;;;;;;;6247963;28;20049;-60
2022/11/28 11:51:56;;;;;;;68.38;26.02;;;;;;;;;;6248583;28;20057;-58
2022/11/28 11:55:02;;;;;;;60.67;25.08;;;;;;;;;;6254881;28;20113;-79
2022/11/28 11:58:03;;;;;;;66.72;25.67;;;;;;;;;;6248654;28;20424;-60
2022/11/28 12:01:05;;;;;;;75.13;26.95;;;;;;;;;;6246860;28;20129;-58
2022/11/28 12:04:13;;;;;;;74.40;29.23;;;;;;;;;;6249450;28;20742;-57
2022/11/28 12:07:23;;;;;;;76.72;29.55;;;;;;;;;;6252462;28;20457;-57
2022/11/28 12:10:32;;;;;;;57.72;21.85;;;;;;;;;;6251067;28;20495;-54
2022/11/28 12:13:33;;;;;;;55.95;20.05;;;;;;;;;;6251775;28;20052;-56
2022/11/28 12:16:59;;;;;;;51.17;19.08;;;;;;;;;;6249607;28;20057;-73
2022/11/28 12:20:21;;;;;;;58.40;19.63;;;;;;;;;;6247213;28;20049;-59
2022/11/28 12:23:42;;;;;;;52.45;21.00;;;;;;;;;;6249588;28;20415;-57
2022/11/28 12:26:53;;;;;;;61.70;23.00;;;;;;;;;;6254723;28;20481;-62
2022/11/28 12:30:19;;;;;;;57.78;22.35;;;;;;;;;;6252887;28;20061;-59
2022/11/28 12:33:32;;;;;;;64.88;24.70;;;;;;;;;;6254319;28;20059;-59
2022/11/28 12:36:53;;;;;;;55.67;21.67;;;;;;;;;;6257474;28;20053;-59
2022/11/28 12:40:12;;;;;;;57.90;20.58;;;;;;;;;;6256033;28;20487;-58
2022/11/28 12:43:26;;;;;;;58.05;22.75;;;;;;;;;;6253113;28;20037;-66
2022/11/28 12:46:33;;;;;;;60.65;22.02;;;;;;;;;;6256693;28;20071;-56
2022/11/28 12:50:03;;;;;;;61.50;23.75;;;;;;;;;;6254435;28;20543;-59
2022/11/28 12:53:22;;;;;;;60.42;21.80;;;;;;;;;;6232983;28;20081;-59
2022/11/28 12:56:41;;;;;;;52.97;20.30;;;;;;;;;;6261048;28;20141;-57
2022/11/28 13:00:00;;;;;;;55.85;20.77;;;;;;;;;;6269539;28;20063;-58
2022/11/28 13:03:30;;;;;;;75.95;26.60;;;;;;;;;;6262580;28;20049;-59
2022/11/28 13:06:56;;;;;;;59.38;23.63;;;;;;;;;;6253297;28;20137;-58
2022/11/28 13:10:11;;;;;;;59.08;23.33;;;;;;;;;;6252715;28;20056;-58
2022/11/28 13:13:15;;;;;;;65.47;24.77;;;;;;;;;;6260084;28;20039;-56
2022/11/28 13:16:40;;;;;;;68.47;26.52;;;;;;;;;;6267743;28;20037;-59
2022/11/28 13:20:23;;;;;;;67.97;25.50;;;;;;;;;;6270332;28;20063;-59
2022/11/28 13:23:29;;;;;;;60.08;24.08;;;;;;;;;;6269990;28;20056;-59
2022/11/28 13:26:57;;;;;;;61.75;21.55;;;;;;;;;;6270470;28;20506;-60
2022/11/28 13:30:13;;;;;;;62.20;23.63;;;;;;;;;;6270196;28;20049;-58
2022/11/28 13:33:40;;;;;;;57.50;21.27;;;;;;;;;;6249837;28;20095;-56
2022/11/28 13:37:13;;;;;;;70.88;23.13;;;;;;;;;;6255601;28;20057;-59
2022/11/28 13:40:31;;;;;;;63.75;23.40;;;;;;;;;;6246816;28;20658;-58
2022/11/28 13:43:46;;;;;;;67.18;25.70;;;;;;;;;;6248604;28;20047;-59
2022/11/28 13:46:47;;;;;;;54.75;21.88;;;;;;;;;;6238443;28;20048;-59
2022/11/28 13:49:48;;;;;;;51.35;22.50;;;;;;;;;;6252701;28;20057;-58
2022/11/28 13:53:07;;;;;;;60.22;21.67;;;;;;;;;;6252221;28;20042;-56
2022/11/28 13:56:07;;;;;;;63.13;23.00;;;;;;;;;;6252956;28;20393;-58
2022/11/28 13:59:17;;;;;;;51.10;22.95;;;;;;;;;;6249937;28;20064;-59
2022/11/28 14:02:24;;;;;;;60.00;23.15;;;;;;;;;;6252398;28;20463;-59
2022/11/28 14:05:38;;;;;;;54.22;18.83;;;;;;;;;;6252299;28;20053;-58
2022/11/28 14:08:42;;;;;;;54.13;20.63;;;;;;;;;;6251637;28;20056;-58
2022/11/28 14:11:49;;;;;;;49.33;18.35;;;;;;;;;;6252384;28;20076;-58
2022/11/28 14:14:58;;;;;;;42.63;17.63;;;;;;;;;;6250299;28;20084;-58
2022/11/28 14:18:49;;;;;;;45.90;18.02;;;;;;;;;;6252763;28;20053;-60
2022/11/28 14:22:17;;;;;;;47.90;19.08;;;;;;;;;;6158339;28;20038;-59
2022/11/28 14:25:21;;;;;;;39.92;17.55;;;;;;;;;;6175574;28;20044;-60
2022/11/28 14:28:28;;;;;;;48.75;19.38;;;;;;;;;;6249166;28;20061;-61
2022/11/28 14:31:38;;;;;;;50.38;19.55;;;;;;;;;;6245954;28;20049;-64
2022/11/28 14:34:48;;;;;;;49.92;21.05;;;;;;;;;;6259398;28;20443;-66
2022/11/28 14:37:52;;;;;;;57.22;22.10;;;;;;;;;;6257715;28;20045;-61
2022/11/28 14:40:55;;;;;;;58.35;22.02;;;;;;;;;;6259597;28;20052;-58
2022/11/28 14:44:34;;;;;;;61.65;23.35;;;;;;;;;;6264092;28;20143;-71
2022/11/28 14:47:38;;;;;;;54.40;22.58;;;;;;;;;;6260017;28;20057;-67
2022/11/28 14:50:39;;;;;;;58.72;22.67;;;;;;;;;;6263347;28;20131;-69
2022/11/28 14:53:44;;;;;;;55.10;22.00;;;;;;;;;;6267486;28;20063;-58
2022/11/28 14:56:45;;;;;;;54.28;21.83;;;;;;;;;;6266445;28;20053;-62
2022/11/28 14:59:47;;;;;;;59.38;23.65;;;;;;;;;;6264791;28;20160;-68
2022/11/28 15:03:05;;;;;;;57.95;22.58;;;;;;;;;;6266258;28;20040;-68
2022/11/28 15:06:20;;;;;;;63.40;23.42;;;;;;;;;;6266851;28;20401;-53
2022/11/28 15:09:33;;;;;;;61.65;23.58;;;;;;;;;;6268873;28;20057;-62
2022/11/28 15:12:49;;;;;;;61.40;24.05;;;;;;;;;;6261870;28;20048;-68
2022/11/28 15:15:52;;;;;;;60.58;23.90;;;;;;;;;;6266146;28;20794;-63
2022/11/28 15:18:59;;;;;;;64.10;25.17;;;;;;;;;;6266923;28;20057;-65
2022/11/28 15:21:59;;;;;;;62.25;25.33;;;;;;;;;;6262271;28;20049;-79
2022/11/28 15:25:00;;;;;;;70.25;29.75;;;;;;;;;;6266831;28;20401;-62
2022/11/28 15:28:17;;;;;;;65.80;25.92;;;;;;;;;;6267687;28;20443;-62
2022/11/28 15:31:22;;;;;;;63.97;22.58;;;;;;;;;;6243155;28;20049;-66
2022/11/28 15:34:27;;;;;;;68.20;26.55;;;;;;;;;;6265655;28;20183;-62
2022/11/28 15:37:31;;;;;;;69.18;26.85;;;;;;;;;;6263989;28;20045;-69
2022/11/28 15:40:35;;;;;;;65.68;26.52;;;;;;;;;;6266758;28;20079;-69
2022/11/28 15:43:40;;;;;;;67.07;27.67;;;;;;;;;;6269324;28;20063;-64
2022/11/28 15:46:41;;;;;;;62.20;26.23;;;;;;;;;;6264729;28;20159;-73
2022/11/28 15:49:42;;;;;;;76.47;28.15;;;;;;;;;;6270620;28;20055;-59
2022/11/28 15:53:17;;;;;;;77.90;27.63;;;;;;;;;;6265056;28;20053;-70
2022/11/28 15:56:18;;;;;;;77.82;29.15;;;;;;;;;;6265913;28;20507;-62
2022/11/28 15:59:19;;;;;;;76.43;28.75;;;;;;;;;;6265821;28;20419;-61
2022/11/28 16:02:21;;;;;;;96.47;34.03;;;;;;;;;;6266668;28;20058;-66
2022/11/28 16:05:22;;;;;;;89.82;32.10;;;;;;;;;;6264904;28;20053;-61
2022/11/28 16:08:30;;;;;;;83.45;29.30;;;;;;;;;;6272925;28;20060;-59
2022/11/28 16:11:33;;;;;;;75.10;27.20;;;;;;;;;;6267331;28;20075;-61
2022/11/28 16:14:35;;;;;;;83.57;30.40;;;;;;;;;;6272820;28;20044;-78
2022/11/28 16:17:38;;;;;;;87.70;31.98;;;;;;;;;;6269633;28;20048;-69
2022/11/28 16:20:38;;;;;;;95.18;33.78;;;;;;;;;;6260551;28;20052;-68
2022/11/28 16:23:40;;;;;;;92.97;34.97;;;;;;;;;;6259189;28;20059;-75
2022/11/28 16:26:40;;;;;;;98.80;32.45;;;;;;;;;;6258906;28;20475;-67
2022/11/28 16:29:43;;;;;;;102.13;33.65;;;;;;;;;;6260639;28;20175;-74
2022/11/28 16:32:44;;;;;;;95.95;33.22;;;;;;;;;;6262344;28;20885;-61
2022/11/28 16:35:45;;;;;;;115.45;37.00;;;;;;;;;;6250284;28;20063;-61
2022/11/28 16:38:47;;;;;;;87.97;33.42;;;;;;;;;;6266291;28;20049;-69
2022/11/28 16:42:03;;;;;;;90.43;31.80;;;;;;;;;;6266841;28;20056;-63
2022/11/28 16:45:16;;;;;;;93.72;32.75;;;;;;;;;;6268901;28;20098;-60
2022/11/28 16:48:18;;;;;;;95.55;34.45;;;;;;;;;;6260991;28;20060;-62
2022/11/28 16:51:24;;;;;;;91.72;32.53;;;;;;;;;;6266195;28;20049;-65
2022/11/28 16:54:28;;;;;;;86.82;33.78;;;;;;;;;;6269489;28;20449;-60
2022/11/28 16:57:45;;;;;;;80.97;30.02;;;;;;;;;;6261755;28;20143;-61
2022/11/28 17:00:58;;;;;;;86.97;30.92;;;;;;;;;;6258776;28;20518;-65
2022/11/28 17:03:59;;;;;;;86.82;29.60;;;;;;;;;;6261500;28;20087;-60
2022/11/28 17:07:04;;;;;;;88.45;31.95;;;;;;;;;;6259589;28;20095;-58
2022/11/28 17:10:05;;;;;;;77.05;30.65;;;;;;;;;;6263499;28;20175;-63
2022/11/28 17:13:08;;;;;;;80.22;30.73;;;;;;;;;;6273560;28;20066;-77
2022/11/28 17:16:15;;;;;;;86.50;30.80;;;;;;;;;;6270341;28;20057;-62
2022/11/28 17:19:16;;;;;;;89.10;31.45;;;;;;;;;;6268386;28;20064;-68
2022/11/28 17:22:22;;;;;;;88.97;31.83;;;;;;;;;;6245609;28;20052;-65
2022/11/28 17:25:23;;;;;;;77.20;28.70;;;;;;;;;;6268342;28;20463;-67
2022/11/28 17:28:23;;;;;;;74.72;28.65;;;;;;;;;;6265629;28;20109;-59
2022/11/28 17:31:24;;;;;;;78.22;29.13;;;;;;;;;;6260199;28;20045;-66
2022/11/28 17:34:30;;;;;;;75.72;30.15;;;;;;;;;;6267704;28;20049;-62
2022/11/28 17:37:31;;;;;;;78.32;27.90;;;;;;;;;;6262758;28;20117;-71
2022/11/28 17:40:35;;;;;;;84.13;34.13;;;;;;;;;;6263861;28;20501;-67
2022/11/28 17:43:36;;;;;;;76.40;27.02;;;;;;;;;;6266948;28;20068;-60
2022/11/28 17:46:36;;;;;;;70.97;28.13;;;;;;;;;;6266021;28;20071;-68
2022/11/28 17:49:37;;;;;;;81.70;29.95;;;;;;;;;;6262682;28;20049;-69
2022/11/28 17:52:38;;;;;;;72.43;29.83;;;;;;;;;;6267232;28;20053;-58
2022/11/28 17:55:41;;;;;;;77.75;28.17;;;;;;;;;;6268872;28;20065;-69
2022/11/28 17:58:41;;;;;;;70.32;28.20;;;;;;;;;;6267874;28;20850;-76
2022/11/28 18:01:43;;;;;;;84.95;30.75;;;;;;;;;;6265193;28;20045;-71